Terminal Aerodrome Forecast
Issued by NWS Upton, NY

Home | Current Version | Previous Version | Text Only | Print | Product List | Glossary On
Versions: 1 2 3 4 5 6 7 8 9 10 11 12 13 14 15 16 17 18 19 20 21 22 23 24 25 26 27 28 29 30 31
000
FTUS41 KOKX 230609 AAA
TAFISP
TAF AMD
KISP 230609Z 2306/2406 VRB04KT 1/2SM FG VV005 WS020/20035KT
      TEMPO 2306/2310 1/4SM FG VV002
     FM231100 17010G19KT 2SM -SHRA BR OVC005 WS020/20045KT
     FM231300 17012G20KT 3SM SHRA BR OVC008 WS020/20050KT
     FM231500 18017G26KT 3SM SHRA BR OVC010 WS020/20060KT
     FM232100 22014G22KT 6SM BR VCSH SCT010 BKN050
     FM240000 26010KT P6SM SCT080=

USA.gov is the U.S. government's official web portal to all federal, state and local government web resources and services.